Am Tubarao — A8ZA9 — position and weather

sailwx.info

Track history (hours):
 
Tides and Currents Weather Stations Pressure Air Temp Water Temp Dewpoint Dewpoint Depression Visibility Wind Speed Wind Dir Waves Ship Positions

Am Tubarao

Last reported at 2015-Jul-18 22:28 UTC. Time now 2015-Jul-28 05:53 UTC.
Position N 36°60' W 072°14'.
Warning: this ship's position is 9 days out of date.

Length 230 m; draft 8.4 m.

Type: Cargo ship. MMSI: 636015171.

Date/timePositionNaut miles runAvg speedWind from/ knotsBaromVisibWave heightAir tempDewpointWater temp
2015-Jul-18 22:28N 36°60' W 072°14'8 8.8
2015-Jul-18 21:32N 36°59' W 072°25'9 8.4
2015-Jul-18 20:28N 36°60' W 072°36'  
2015-Jul-13 21:05N 37°56' W 071°47'4 8.1
2015-Jul-13 20:33N 37°58' W 071°42'11 7.7
2015-Jul-13 19:10N 38°01' W 071°29'18 6.9
2015-Jul-13 16:33N 38°07' W 071°08'6 6.3
2015-Jul-13 15:33N 38°09' W 071°00'7 7.0
2015-Jul-13 14:33N 38°11' W 070°52'1110.5
2015-Jul-13 13:33N 38°14' W 070°39'7 6.6
2015-Jul-13 12:33N 38°16' W 070°31'13 6.3
2015-Jul-13 10:33N 38°20' W 070°15'51 9.6
2015-Jul-13 05:15N 38°35' W 069°14'1810.5
2015-Jul-13 03:34N 38°41' W 068°52'1110.5
2015-Jul-13 02:32N 38°44' W 068°39'  
Track history (hours):
 
Tides and Currents Weather Stations Pressure Air Temp Water Temp Dewpoint Dewpoint Depression Visibility Wind Speed Wind Dir Waves Ship Positions

Am Tubarao

Last reported at 2015-Jul-18 22:28 UTC. Time now 2015-Jul-28 05:53 UTC.
Position N 36°60' W 072°14'.
Warning: this ship's position is 9 days out of date.

Length 230 m; draft 8.4 m.

Type: Cargo ship. MMSI: 636015171.

Date/timePositionNaut miles runAvg speedWind from/ knotsBaromVisibWave heightAir tempDewpointWater temp
2015-Jul-18 22:28N 36°60' W 072°14'8 8.8
2015-Jul-18 21:32N 36°59' W 072°25'9 8.4
2015-Jul-18 20:28N 36°60' W 072°36'  
2015-Jul-13 21:05N 37°56' W 071°47'4 8.1
2015-Jul-13 20:33N 37°58' W 071°42'11 7.7
2015-Jul-13 19:10N 38°01' W 071°29'18 6.9
2015-Jul-13 16:33N 38°07' W 071°08'6 6.3
2015-Jul-13 15:33N 38°09' W 071°00'7 7.0
2015-Jul-13 14:33N 38°11' W 070°52'1110.5
2015-Jul-13 13:33N 38°14' W 070°39'7 6.6
2015-Jul-13 12:33N 38°16' W 070°31'13 6.3
2015-Jul-13 10:33N 38°20' W 070°15'51 9.6
2015-Jul-13 05:15N 38°35' W 069°14'1810.5
2015-Jul-13 03:34N 38°41' W 068°52'1110.5
2015-Jul-13 02:32N 38°44' W 068°39'  

Dump ship's entire track history